createdAt,value
2024-04-19T00:00:14.473Z,17.5
2024-04-19T00:05:20.801Z,17.5
2024-04-19T00:10:27.027Z,17.5
2024-04-19T00:15:33.335Z,17.5
2024-04-19T00:20:39.635Z,17.5
2024-04-19T00:25:45.944Z,17.5
2024-04-19T00:30:52.239Z,17.5
2024-04-19T00:35:58.526Z,17.5
2024-04-19T00:41:04.948Z,17.5
2024-04-19T00:46:11.348Z,17.5
2024-04-19T00:51:17.787Z,17.5
2024-04-19T00:56:24.177Z,17.5
2024-04-19T01:01:30.602Z,17.5
2024-04-19T01:06:37.015Z,17.5
2024-04-19T01:11:43.426Z,17.5
2024-04-19T01:16:49.842Z,17.5
2024-04-19T01:21:56.293Z,17.5
2024-04-19T01:27:02.736Z,17.5
2024-04-19T01:32:09.152Z,17.5
2024-04-19T01:37:15.588Z,17.5
2024-04-19T01:42:22.040Z,17.5
2024-04-19T01:47:28.712Z,17.5
2024-04-19T02:02:48.797Z,17.5
2024-04-19T02:07:55.494Z,17.5
2024-04-19T02:13:02.189Z,17.5
2024-04-19T02:23:15.581Z,17.5
2024-04-19T02:28:22.298Z,17.5
2024-04-19T02:33:28.986Z,17.5
2024-04-19T02:38:35.673Z,17.5
2024-04-19T02:43:42.372Z,17.5
2024-04-19T02:48:49.100Z,17.5
2024-04-19T02:53:56.398Z,17.5
2024-04-19T02:59:03.777Z,17.5
2024-04-19T03:04:11.068Z,17.5
2024-04-19T03:09:18.385Z,17.5
2024-04-19T03:14:25.677Z,18
2024-04-19T03:19:32.985Z,17.5
2024-04-19T03:24:40.284Z,17.5
2024-04-19T03:29:47.620Z,17.5
2024-04-19T03:34:54.917Z,17.5
2024-04-19T03:40:02.218Z,17.5
2024-04-19T03:45:09.512Z,17.5
2024-04-19T03:50:16.811Z,17.5
2024-04-19T03:55:24.110Z,17.5
2024-04-19T04:00:32.402Z,17.5
2024-04-19T04:05:38.792Z,17.5
2024-04-19T04:10:44.949Z,17.5
2024-04-19T04:15:51.139Z,17.5
2024-04-19T04:20:57.345Z,17.5
2024-04-19T04:26:03.666Z,17.5
2024-04-19T04:31:09.758Z,17.5
2024-04-19T04:36:15.959Z,17.5
2024-04-19T04:41:22.172Z,17.5
2024-04-19T04:46:28.361Z,17.5
2024-04-19T04:51:34.635Z,17.5
2024-04-19T04:56:40.823Z,17.5
2024-04-19T05:01:47.027Z,17.5
2024-04-19T05:06:53.242Z,17.5
2024-04-19T05:11:59.420Z,17.5
2024-04-19T05:17:05.661Z,17.5
2024-04-19T05:22:11.820Z,17.5
2024-04-19T05:27:18.032Z,17.5
2024-04-19T05:32:24.223Z,17.5
2024-04-19T05:37:30.424Z,17.5
2024-04-19T05:42:36.620Z,17.5
2024-04-19T05:47:42.828Z,17.5
2024-04-19T05:52:49.026Z,17.5
2024-04-19T05:57:55.448Z,17.5
2024-04-19T06:03:01.614Z,17.5
2024-04-19T06:08:07.646Z,17.5
2024-04-19T06:13:13.953Z,17.5
2024-04-19T06:18:20.249Z,17.5
2024-04-19T06:23:26.783Z,17.5
2024-04-19T06:28:32.839Z,17.5
2024-04-19T06:33:39.228Z,17.5
2024-04-19T06:38:45.580Z,17.5
2024-04-19T06:43:51.729Z,17.5
2024-04-19T06:48:57.996Z,17.5
2024-04-19T06:54:04.328Z,17.5
2024-04-19T06:59:10.620Z,17.5
2024-04-19T07:04:17.096Z,17.5
2024-04-19T07:09:23.658Z,17.5
2024-04-19T07:14:29.489Z,17.5
2024-04-19T07:19:36.237Z,17.5
2024-04-19T07:24:42.676Z,17.5
2024-04-19T07:29:49.241Z,17.5
2024-04-19T07:34:55.610Z,17.5
2024-04-19T07:40:01.673Z,17.5
2024-04-19T07:45:08.081Z,17.5
2024-04-19T07:50:14.526Z,17.5
2024-04-19T07:55:21.268Z,17.5
2024-04-19T08:00:27.752Z,17.5
2024-04-19T08:05:34.136Z,17.5
2024-04-19T08:10:40.627Z,17.5
2024-04-19T08:15:47.022Z,17.5
2024-04-19T08:20:53.558Z,17.5
2024-04-19T08:25:59.947Z,17.5
2024-04-19T08:31:06.781Z,17.5
2024-04-19T08:36:13.227Z,17.5
2024-04-19T08:41:19.900Z,17.5
2024-04-19T08:46:26.556Z,17.5
2024-04-19T08:51:33.221Z,17.5
2024-04-19T08:56:39.978Z,17.5
2024-04-19T09:01:46.649Z,17.5
2024-04-19T09:06:53.325Z,17.5
2024-04-19T09:12:00.005Z,17.5
2024-04-19T09:17:06.823Z,17.5
2024-04-19T09:22:13.579Z,17.5
2024-04-19T09:27:20.289Z,17.5
2024-04-19T09:32:27.618Z,17.5
2024-04-19T09:37:34.815Z,17.5
2024-04-19T09:42:42.119Z,17.5
2024-04-19T09:47:49.323Z,17.5
2024-04-19T09:52:56.605Z,17.5
2024-04-19T09:58:04.020Z,17.5
2024-04-19T10:03:11.323Z,17.5
2024-04-19T10:08:18.707Z,17.5
2024-04-19T10:13:25.803Z,17.5
2024-04-19T10:18:33.119Z,17.5
2024-04-19T10:23:40.480Z,17.5
2024-04-19T10:28:47.980Z,17.5
2024-04-19T10:33:55.111Z,17.5
2024-04-19T10:44:11.604Z,17.5
2024-04-19T10:49:18.416Z,17.5
2024-04-19T10:54:24.638Z,17.5
2024-04-19T10:59:30.988Z,18
2024-04-19T11:04:37.125Z,17.5
2024-04-19T11:09:43.383Z,18
2024-04-19T11:14:49.640Z,18
2024-04-19T11:19:55.954Z,18
2024-04-19T11:25:02.412Z,18
2024-04-19T11:30:08.762Z,18
2024-04-19T11:35:14.921Z,18
2024-04-19T11:40:21.159Z,18.5
2024-04-19T11:45:27.518Z,18
2024-04-19T11:50:33.750Z,18.5
2024-04-19T11:55:40.061Z,18
2024-04-19T12:00:46.330Z,18
2024-04-19T12:05:52.721Z,17.5
2024-04-19T12:10:58.950Z,18
2024-04-19T12:16:05.256Z,18.5
2024-04-19T12:21:11.896Z,18.5
2024-04-19T12:26:17.855Z,18
2024-04-19T12:31:24.165Z,18
2024-04-19T12:36:30.421Z,18.5
2024-04-19T12:41:36.692Z,18
2024-04-19T12:46:42.977Z,18
2024-04-19T12:51:49.276Z,18.5
2024-04-19T12:56:55.700Z,18.5
2024-04-19T13:02:02.104Z,18.5
2024-04-19T13:07:08.550Z,18.5
2024-04-19T13:12:14.946Z,18.5
2024-04-19T13:17:21.374Z,18.5
2024-04-19T13:22:27.792Z,18.5
2024-04-19T13:27:34.203Z,18.5
2024-04-19T13:32:40.619Z,18
2024-04-19T13:37:47.010Z,18.5
2024-04-19T13:42:53.451Z,18
2024-04-19T13:47:59.898Z,18.5
2024-04-19T13:53:06.302Z,18.5
2024-04-19T13:58:12.708Z,18
2024-04-19T14:03:19.387Z,18.5
2024-04-19T14:08:26.092Z,18.5
2024-04-19T14:13:32.763Z,18.5
2024-04-19T14:18:39.438Z,18.5
2024-04-19T14:23:46.134Z,18.5
2024-04-19T14:28:52.827Z,18.5
2024-04-19T14:33:59.530Z,18.5
2024-04-19T14:39:06.242Z,18.5
2024-04-19T14:44:13.132Z,18.5
2024-04-19T14:49:19.649Z,18.5
2024-04-19T14:54:26.343Z,18.5
2024-04-19T14:59:33.002Z,18.5
2024-04-19T15:04:39.716Z,18.5
2024-04-19T15:09:46.995Z,18.5
2024-04-19T15:14:54.289Z,18.5
2024-04-19T15:20:01.611Z,18.5
2024-04-19T15:25:08.933Z,18.5
2024-04-19T15:30:16.255Z,18.5
2024-04-19T15:35:23.496Z,18.5
2024-04-19T15:40:30.816Z,18.5
2024-04-19T15:45:38.114Z,18.5
2024-04-19T15:50:45.419Z,18.5
2024-04-19T15:55:52.799Z,18.5
2024-04-19T16:01:00.015Z,18.5
2024-04-19T16:06:07.424Z,18
2024-04-19T16:11:14.634Z,18.5
2024-04-19T16:16:22.915Z,18.5
2024-04-19T16:21:29.325Z,18.5
2024-04-19T16:26:35.595Z,18.5
2024-04-19T16:31:42.006Z,19
2024-04-19T16:36:48.363Z,19.5
2024-04-19T16:41:54.651Z,20
2024-04-19T16:47:01.110Z,20.5
2024-04-19T16:52:07.124Z,22
2024-04-19T16:57:13.434Z,23
2024-04-19T17:02:19.840Z,23
2024-04-19T17:07:25.990Z,23.5
2024-04-19T17:12:32.322Z,23.5
2024-04-19T17:17:38.525Z,23.5
2024-04-19T17:22:44.840Z,23.5
2024-04-19T17:27:51.158Z,23.5
2024-04-19T17:32:57.448Z,24
2024-04-19T17:38:03.824Z,24
2024-04-19T17:43:10.040Z,23.5
2024-04-19T17:48:16.339Z,24
2024-04-19T17:53:22.623Z,23.5
2024-04-19T17:58:28.951Z,23.5
2024-04-19T18:03:35.190Z,23.5
2024-04-19T18:08:41.451Z,23
2024-04-19T18:13:47.745Z,23.5
2024-04-19T18:18:54.154Z,23
2024-04-19T18:24:00.645Z,23
2024-04-19T18:29:06.857Z,23
2024-04-19T18:34:13.260Z,23
2024-04-19T18:39:19.597Z,22.5
2024-04-19T18:44:26.022Z,22.5
2024-04-19T18:49:32.424Z,22.5
2024-04-19T18:54:38.835Z,23
2024-04-19T18:59:45.279Z,22.5
2024-04-19T19:04:51.675Z,22.5
2024-04-19T19:09:58.080Z,22.5
2024-04-19T19:15:04.495Z,22.5
2024-04-19T19:20:10.895Z,22.5
2024-04-19T19:25:17.300Z,22
2024-04-19T19:30:23.782Z,22
2024-04-19T19:35:30.354Z,22.5
2024-04-19T19:40:37.013Z,22.5
2024-04-19T19:45:43.750Z,22
2024-04-19T19:50:50.376Z,22
2024-04-19T19:55:57.096Z,22
2024-04-19T20:01:03.792Z,22
2024-04-19T20:06:10.485Z,22
2024-04-19T20:11:17.176Z,22
2024-04-19T20:16:24.167Z,22
2024-04-19T20:21:30.529Z,22
2024-04-19T20:26:37.236Z,22
2024-04-19T20:31:43.914Z,22
2024-04-19T20:36:50.728Z,21.5
2024-04-19T20:41:57.931Z,21.5
2024-04-19T20:47:05.173Z,21.5
2024-04-19T20:52:12.492Z,22
2024-04-19T20:57:19.771Z,21.5
2024-04-19T21:02:27.043Z,21.5
2024-04-19T21:07:34.478Z,21.5
2024-04-19T21:12:41.664Z,21.5
2024-04-19T21:17:48.951Z,21.5
2024-04-19T21:22:56.238Z,21.5
2024-04-19T21:28:03.556Z,21.5
2024-04-19T21:33:10.823Z,21.5
2024-04-19T21:38:18.141Z,21.5
2024-04-19T21:43:25.409Z,21.5
2024-04-19T21:48:33.720Z,21
2024-04-19T21:53:40.111Z,21.5
2024-04-19T21:58:46.374Z,21.5
2024-04-19T22:03:52.654Z,21.5
2024-04-19T22:08:58.964Z,21.5
2024-04-19T22:14:05.251Z,21.5
2024-04-19T22:19:11.510Z,21.5
2024-04-19T22:24:17.775Z,21.5
2024-04-19T22:29:24.078Z,21.5
2024-04-19T22:34:30.404Z,21.5
2024-04-19T22:39:36.657Z,21.5
2024-04-19T22:44:42.970Z,21.5
2024-04-19T22:49:49.265Z,22
2024-04-19T22:54:55.594Z,22
2024-04-19T23:00:01.880Z,22
2024-04-19T23:05:08.201Z,21.5
2024-04-19T23:10:14.485Z,22
2024-04-19T23:15:20.791Z,22
2024-04-19T23:20:27.068Z,22
2024-04-19T23:25:33.364Z,21.5
2024-04-19T23:30:39.666Z,21.5
2024-04-19T23:35:45.998Z,22
2024-04-19T23:40:52.283Z,22
2024-04-19T23:45:58.593Z,22
2024-04-19T23:51:04.919Z,21.5
2024-04-19T23:56:11.211Z,22
